Time;durP1;ratioP1;P1;durP2;ratioP2;P2;SDS_P1;SDS_P2;PMS_P1;PMS_P2;Temp;Humidity;BMP_temperature;BMP_pressure;BME280_temperature;BME280_humidity;BME280_pressure;Samples;Min_cycle;Max_cycle;Signal;HPM_P1;HPM_P2
2021/06/14 00:00:14;;;;;;;8.47;5.10;;;;;;;;;;767151;182;921684;-68
2021/06/14 00:02:40;;;;;;;6.10;4.60;;;;;;;;;;760606;183;918899;-68
2021/06/14 00:05:06;;;;;;;9.40;4.30;;;;;;;;;;754597;183;918721;-70
2021/06/14 00:07:32;;;;;;;7.12;4.28;;;;;;;;;;766989;183;918972;-68
2021/06/14 00:09:58;;;;;;;8.53;4.77;;;;;;;;;;759015;182;918737;-69
2021/06/14 00:12:24;;;;;;;9.07;4.60;;;;;;;;;;761489;182;918528;-68
2021/06/14 00:14:50;;;;;;;5.97;5.18;;;;;;;;;;762840;183;918459;-67
2021/06/14 00:17:16;;;;;;;7.10;4.37;;;;;;;;;;769462;182;919247;-68
2021/06/14 00:19:42;;;;;;;7.20;4.90;;;;;;;;;;759456;183;919474;-68
2021/06/14 00:22:08;;;;;;;7.70;4.60;;;;;;;;;;761878;182;919837;-68
2021/06/14 00:24:33;;;;;;;6.27;4.87;;;;;;;;;;763397;184;919547;-68
2021/06/14 00:26:59;;;;;;;5.17;3.80;;;;;;;;;;754710;184;918971;-68
2021/06/14 00:29:25;;;;;;;5.50;4.10;;;;;;;;;;758728;183;919426;-68
2021/06/14 00:31:51;;;;;;;6.30;4.20;;;;;;;;;;754579;186;916118;-68
2021/06/14 00:34:17;;;;;;;10.37;5.27;;;;;;;;;;758723;183;919470;-67
2021/06/14 00:36:43;;;;;;;6.45;4.55;;;;;;;;;;753677;184;919526;-67
2021/06/14 00:39:08;;;;;;;6.47;5.20;;;;;;;;;;762734;183;917794;-68
2021/06/14 00:41:34;;;;;;;9.03;4.30;;;;;;;;;;760381;182;918914;-67
2021/06/14 00:44:00;;;;;;;10.93;4.37;;;;;;;;;;760593;182;918363;-67
2021/06/14 00:46:26;;;;;;;7.17;5.23;;;;;;;;;;760496;182;919480;-67
2021/06/14 00:48:52;;;;;;;8.60;5.20;;;;;;;;;;769845;180;919831;-67
2021/06/14 00:51:18;;;;;;;23.07;7.00;;;;;;;;;;759059;182;919040;-67
2021/06/14 00:53:43;;;;;;;6.70;4.97;;;;;;;;;;758347;182;919459;-67
2021/06/14 00:56:09;;;;;;;7.30;4.50;;;;;;;;;;764766;182;919969;-68
2021/06/14 00:58:35;;;;;;;5.10;4.00;;;;;;;;;;763611;181;919090;-67
2021/06/14 01:01:01;;;;;;;5.50;4.80;;;;;;;;;;761300;183;920481;-67
2021/06/14 01:03:27;;;;;;;9.10;4.97;;;;;;;;;;767140;182;919212;-67
2021/06/14 01:05:54;;;;;;;6.97;3.83;;;;;;;;;;759140;183;918975;-67
2021/06/14 01:08:20;;;;;;;7.60;4.17;;;;;;;;;;767753;183;629093;-67
2021/06/14 01:10:48;;;;;;;4.03;3.40;;;;;;;;;;766337;182;918989;-67
2021/06/14 01:13:23;;;;;;;8.37;3.73;;;;;;;;;;760413;182;917852;-67
2021/06/14 01:15:50;;;;;;;5.05;4.45;;;;;;;;;;762569;182;919085;-68
2021/06/14 01:18:16;;;;;;;5.00;4.20;;;;;;;;;;758743;182;919090;-68
2021/06/14 01:20:42;;;;;;;7.13;3.87;;;;;;;;;;759544;182;918768;-67
2021/06/14 01:23:07;;;;;;;8.20;3.70;;;;;;;;;;765933;179;919386;-68
2021/06/14 01:25:34;;;;;;;5.90;4.03;;;;;;;;;;758961;182;919781;-68
2021/06/14 01:28:00;;;;;;;6.28;4.25;;;;;;;;;;760521;182;918626;-68
2021/06/14 01:30:28;;;;;;;5.30;3.93;;;;;;;;;;767282;182;918601;-67
2021/06/14 01:32:54;;;;;;;8.40;5.28;;;;;;;;;;760914;183;920158;-68
2021/06/14 01:35:20;;;;;;;5.63;3.93;;;;;;;;;;756674;183;919845;-68
2021/06/14 01:37:46;;;;;;;5.55;3.78;;;;;;;;;;764692;182;921724;-68
2021/06/14 01:40:12;;;;;;;7.60;3.97;;;;;;;;;;759277;182;921018;-68
2021/06/14 01:42:38;;;;;;;8.70;4.15;;;;;;;;;;759020;182;920172;-67
2021/06/14 01:45:04;;;;;;;8.00;4.67;;;;;;;;;;760257;182;918062;-66
2021/06/14 01:47:30;;;;;;;7.57;4.93;;;;;;;;;;742594;186;916344;-68
2021/06/14 01:49:55;;;;;;;6.70;3.97;;;;;;;;;;755662;183;1018240;-67
2021/06/14 01:52:21;;;;;;;10.27;4.53;;;;;;;;;;755124;183;917000;-67
2021/06/14 01:54:47;;;;;;;4.50;3.73;;;;;;;;;;762817;183;911488;-67
2021/06/14 01:57:13;;;;;;;7.07;4.10;;;;;;;;;;759047;183;912312;-69
2021/06/14 01:59:39;;;;;;;5.23;4.27;;;;;;;;;;763102;183;916617;-67
2021/06/14 02:02:05;;;;;;;6.00;3.83;;;;;;;;;;764849;182;914729;-67
2021/06/14 02:04:31;;;;;;;8.20;3.63;;;;;;;;;;758192;182;919522;-67
2021/06/14 02:06:56;;;;;;;9.20;4.67;;;;;;;;;;759799;182;919386;-67
2021/06/14 02:09:23;;;;;;;4.70;3.22;;;;;;;;;;767259;182;919481;-67
2021/06/14 02:11:49;;;;;;;4.30;3.40;;;;;;;;;;761753;183;919585;-68
2021/06/14 02:14:15;;;;;;;5.40;3.87;;;;;;;;;;761445;182;925765;-67
2021/06/14 02:16:41;;;;;;;6.63;3.80;;;;;;;;;;762500;182;919911;-67
2021/06/14 02:19:06;;;;;;;4.87;3.43;;;;;;;;;;768486;182;919735;-67
2021/06/14 02:21:32;;;;;;;5.77;3.47;;;;;;;;;;759254;183;919412;-67
2021/06/14 02:23:58;;;;;;;6.53;4.50;;;;;;;;;;753992;184;919399;-68
2021/06/14 02:26:24;;;;;;;8.40;3.50;;;;;;;;;;766744;183;919132;-67
2021/06/14 02:28:50;;;;;;;5.80;4.07;;;;;;;;;;753084;183;919009;-67
2021/06/14 02:31:16;;;;;;;5.20;3.33;;;;;;;;;;761655;183;919514;-67
2021/06/14 02:33:41;;;;;;;5.53;4.07;;;;;;;;;;766069;182;919297;-67
2021/06/14 02:36:08;;;;;;;4.03;3.00;;;;;;;;;;760217;182;918564;-66
2021/06/14 02:38:33;;;;;;;7.00;4.15;;;;;;;;;;757242;183;919257;-67
2021/06/14 02:40:59;;;;;;;4.90;3.93;;;;;;;;;;760756;182;918996;-67
2021/06/14 02:43:25;;;;;;;6.17;3.83;;;;;;;;;;761780;183;925560;-67
2021/06/14 02:45:51;;;;;;;4.50;3.80;;;;;;;;;;758376;183;926297;-67
2021/06/14 02:48:17;;;;;;;4.73;3.37;;;;;;;;;;756255;184;919956;-67
2021/06/14 02:50:43;;;;;;;4.57;3.10;;;;;;;;;;765598;183;919459;-67
2021/06/14 02:53:08;;;;;;;5.93;3.10;;;;;;;;;;759234;182;917709;-67
2021/06/14 02:55:34;;;;;;;4.83;3.50;;;;;;;;;;759366;182;919059;-67
2021/06/14 02:58:00;;;;;;;5.97;3.53;;;;;;;;;;766729;182;865875;-67
2021/06/14 03:00:28;;;;;;;4.13;3.30;;;;;;;;;;759833;182;919580;-66
2021/06/14 03:02:52;;;;;;;8.30;3.17;;;;;;;;;;755645;183;918955;-66
2021/06/14 03:05:18;;;;;;;11.43;4.25;;;;;;;;;;756288;184;1020631;-65
2021/06/14 03:07:44;;;;;;;7.90;3.87;;;;;;;;;;755335;184;919330;-66
2021/06/14 03:10:10;;;;;;;4.73;3.37;;;;;;;;;;760209;183;918796;-66
2021/06/14 03:12:36;;;;;;;7.60;3.50;;;;;;;;;;759607;183;919418;-66
2021/06/14 03:15:02;;;;;;;4.85;3.85;;;;;;;;;;760533;184;918795;-66
2021/06/14 03:17:28;;;;;;;6.33;3.47;;;;;;;;;;758525;182;919596;-66
2021/06/14 03:19:54;;;;;;;5.70;3.83;;;;;;;;;;759736;182;919477;-66
2021/06/14 03:22:19;;;;;;;5.00;3.90;;;;;;;;;;767550;182;920536;-66
2021/06/14 03:24:45;;;;;;;9.45;4.18;;;;;;;;;;763108;182;922104;-66
2021/06/14 03:27:14;;;;;;;5.53;3.93;;;;;;;;;;757279;183;919449;-66
2021/06/14 03:29:37;;;;;;;5.93;4.20;;;;;;;;;;758593;184;926840;-66
2021/06/14 03:32:03;;;;;;;8.30;5.10;;;;;;;;;;760483;183;919251;-66
2021/06/14 03:34:29;;;;;;;9.80;4.40;;;;;;;;;;760046;182;919399;-66
2021/06/14 03:36:55;;;;;;;8.57;4.47;;;;;;;;;;755801;182;1731352;-66
2021/06/14 03:39:21;;;;;;;8.17;4.53;;;;;;;;;;764757;182;919037;-65
2021/06/14 03:41:46;;;;;;;6.30;5.00;;;;;;;;;;762963;183;918896;-67
2021/06/14 03:44:12;;;;;;;5.30;4.20;;;;;;;;;;757484;183;918615;-66
2021/06/14 03:46:38;;;;;;;11.95;6.15;;;;;;;;;;766671;182;918249;-67
2021/06/14 03:49:04;;;;;;;7.03;5.17;;;;;;;;;;763874;182;919989;-66
2021/06/14 03:51:30;;;;;;;8.57;5.70;;;;;;;;;;761503;182;918908;-66
2021/06/14 03:53:56;;;;;;;6.83;5.40;;;;;;;;;;764330;182;942988;-66
2021/06/14 03:56:22;;;;;;;13.33;6.30;;;;;;;;;;760355;183;918987;-66
2021/06/14 03:58:47;;;;;;;10.87;6.00;;;;;;;;;;758548;182;916177;-66
2021/06/14 04:01:14;;;;;;;13.75;7.07;;;;;;;;;;764456;182;916734;-66
2021/06/14 04:03:41;;;;;;;9.70;6.77;;;;;;;;;;763840;180;918919;-65
2021/06/14 04:06:06;;;;;;;13.80;6.90;;;;;;;;;;757692;183;919724;-65
2021/06/14 04:08:32;;;;;;;12.23;6.70;;;;;;;;;;758929;182;919168;-66
2021/06/14 04:10:57;;;;;;;17.33;8.27;;;;;;;;;;769274;182;627885;-66
2021/06/14 04:13:23;;;;;;;17.00;9.83;;;;;;;;;;759234;183;919736;-66
2021/06/14 04:15:49;;;;;;;14.30;8.20;;;;;;;;;;757889;184;619342;-67
2021/06/14 04:18:15;;;;;;;18.73;8.60;;;;;;;;;;769020;183;679240;-66
2021/06/14 04:20:41;;;;;;;16.83;9.05;;;;;;;;;;764666;183;679487;-67
2021/06/14 04:23:07;;;;;;;22.90;10.57;;;;;;;;;;762952;184;618675;-66
2021/06/14 04:25:32;;;;;;;20.03;10.90;;;;;;;;;;769298;182;621726;-67
2021/06/14 04:28:01;;;;;;;21.63;10.57;;;;;;;;;;763361;182;626165;-66
2021/06/14 04:30:24;;;;;;;24.70;10.67;;;;;;;;;;759554;183;918918;-66
2021/06/14 04:32:50;;;;;;;20.47;12.10;;;;;;;;;;762543;181;918874;-66
2021/06/14 04:35:16;;;;;;;24.77;11.38;;;;;;;;;;767295;182;919504;-66
2021/06/14 04:37:42;;;;;;;37.07;13.07;;;;;;;;;;765145;182;862749;-66
2021/06/14 04:40:08;;;;;;;33.70;16.30;;;;;;;;;;768001;182;640904;-66
2021/06/14 04:42:34;;;;;;;26.40;14.97;;;;;;;;;;765438;182;920389;-66
2021/06/14 04:44:59;;;;;;;33.20;15.98;;;;;;;;;;760817;182;919623;-67
2021/06/14 04:47:25;;;;;;;33.27;17.53;;;;;;;;;;763333;182;673610;-67
2021/06/14 04:49:51;;;;;;;28.57;15.23;;;;;;;;;;766557;182;630236;-66
2021/06/14 04:52:17;;;;;;;29.70;15.37;;;;;;;;;;761667;183;919225;-66
2021/06/14 04:54:43;;;;;;;27.23;13.63;;;;;;;;;;766371;182;630551;-66
2021/06/14 04:57:09;;;;;;;22.52;14.57;;;;;;;;;;768269;182;629360;-65
2021/06/14 04:59:35;;;;;;;41.00;19.43;;;;;;;;;;760629;183;917132;-66
2021/06/14 05:02:01;;;;;;;31.13;19.20;;;;;;;;;;756840;183;916263;-66
2021/06/14 05:04:27;;;;;;;48.80;20.07;;;;;;;;;;759117;182;920434;-66
2021/06/14 05:06:52;;;;;;;21.33;12.97;;;;;;;;;;767953;182;629305;-65
2021/06/14 05:09:18;;;;;;;34.13;18.40;;;;;;;;;;759375;183;917948;-66
2021/06/14 05:11:47;;;;;;;41.17;19.05;;;;;;;;;;759834;183;918954;-67
2021/06/14 05:14:10;;;;;;;20.20;12.27;;;;;;;;;;763291;183;918006;-67
2021/06/14 05:16:36;;;;;;;22.47;11.97;;;;;;;;;;757495;184;965084;-66
2021/06/14 05:19:02;;;;;;;27.60;15.00;;;;;;;;;;758036;183;919493;-65
2021/06/14 05:21:27;;;;;;;19.43;12.07;;;;;;;;;;764196;182;919310;-66
2021/06/14 05:23:53;;;;;;;17.80;10.27;;;;;;;;;;760078;182;918738;-66
2021/06/14 05:26:19;;;;;;;21.90;10.95;;;;;;;;;;757367;183;977873;-67
2021/06/14 05:28:45;;;;;;;21.77;10.80;;;;;;;;;;757442;182;919087;-67
2021/06/14 05:31:11;;;;;;;18.62;11.20;;;;;;;;;;760924;184;919699;-65
2021/06/14 05:33:37;;;;;;;17.80;10.40;;;;;;;;;;761159;182;920402;-67
2021/06/14 05:36:03;;;;;;;29.70;11.93;;;;;;;;;;759821;182;918632;-67
2021/06/14 05:38:28;;;;;;;16.30;9.60;;;;;;;;;;766243;182;919011;-69
2021/06/14 05:40:54;;;;;;;25.60;14.10;;;;;;;;;;760745;182;922166;-67
2021/06/14 05:43:20;;;;;;;14.87;8.63;;;;;;;;;;759306;181;919233;-67
2021/06/14 05:45:46;;;;;;;17.67;9.83;;;;;;;;;;766874;182;920752;-67
2021/06/14 05:48:12;;;;;;;17.10;10.23;;;;;;;;;;760417;182;918662;-68
2021/06/14 05:50:38;;;;;;;15.93;9.13;;;;;;;;;;760989;182;919255;-68
2021/06/14 05:53:04;;;;;;;14.50;9.10;;;;;;;;;;765470;182;920762;-69
2021/06/14 05:55:30;;;;;;;17.53;9.73;;;;;;;;;;760869;183;921705;-67
2021/06/14 05:57:56;;;;;;;18.40;11.23;;;;;;;;;;759764;182;1004533;-67
2021/06/14 06:00:22;;;;;;;13.13;8.57;;;;;;;;;;760119;182;916944;-69
2021/06/14 06:02:48;;;;;;;16.83;9.10;;;;;;;;;;768026;182;919894;-68
2021/06/14 06:05:13;;;;;;;18.57;10.03;;;;;;;;;;756208;183;919136;-68
2021/06/14 06:07:39;;;;;;;15.03;8.37;;;;;;;;;;755296;183;912087;-69
2021/06/14 06:10:06;;;;;;;17.80;9.70;;;;;;;;;;749958;187;1127939;-70
2021/06/14 06:12:31;;;;;;;27.03;10.37;;;;;;;;;;762619;183;811616;-69
2021/06/14 06:14:57;;;;;;;15.80;7.80;;;;;;;;;;761689;183;913288;-69
2021/06/14 06:17:23;;;;;;;16.23;8.60;;;;;;;;;;764484;182;919203;-69
2021/06/14 06:19:49;;;;;;;15.83;8.60;;;;;;;;;;759442;182;919059;-71
2021/06/14 06:22:15;;;;;;;11.80;8.37;;;;;;;;;;759684;183;919043;-71
2021/06/14 06:24:41;;;;;;;15.37;8.30;;;;;;;;;;760174;182;917500;-68
2021/06/14 06:27:07;;;;;;;13.70;7.47;;;;;;;;;;758665;183;919005;-71
2021/06/14 06:29:32;;;;;;;12.60;8.03;;;;;;;;;;760292;182;919092;-70
2021/06/14 06:31:58;;;;;;;14.93;7.47;;;;;;;;;;757956;183;919072;-73
2021/06/14 06:34:24;;;;;;;19.00;7.87;;;;;;;;;;760691;183;1123815;-71
2021/06/14 06:36:50;;;;;;;10.73;6.90;;;;;;;;;;758896;183;919250;-73
2021/06/14 06:39:16;;;;;;;12.77;7.73;;;;;;;;;;760544;182;918893;-73
2021/06/14 06:41:42;;;;;;;15.47;9.10;;;;;;;;;;764905;182;919165;-72
2021/06/14 06:44:09;;;;;;;13.57;7.80;;;;;;;;;;753181;184;918974;-74
2021/06/14 06:46:33;;;;;;;14.67;8.90;;;;;;;;;;753439;184;919558;-75
2021/06/14 06:48:59;;;;;;;15.03;7.80;;;;;;;;;;751695;186;915668;-73
2021/06/14 06:51:25;;;;;;;13.40;7.37;;;;;;;;;;759115;183;919366;-74
2021/06/14 06:54:10;;;;;;;11.48;7.18;;;;;;;;;;757219;182;919588;-75
2021/06/14 06:56:17;;;;;;;15.07;7.67;;;;;;;;;;759560;182;1045460;-73
2021/06/14 06:58:42;;;;;;;17.23;7.37;;;;;;;;;;765717;183;913025;-74
2021/06/14 07:01:08;;;;;;;13.47;8.17;;;;;;;;;;760607;182;918903;-74
2021/06/14 07:03:34;;;;;;;16.37;7.97;;;;;;;;;;758753;182;1036813;-74
2021/06/14 07:06:00;;;;;;;13.10;7.83;;;;;;;;;;769982;182;919157;-73
2021/06/14 07:08:26;;;;;;;18.93;8.23;;;;;;;;;;755943;183;919258;-73
2021/06/14 07:10:52;;;;;;;15.03;7.80;;;;;;;;;;764408;182;919140;-75
2021/06/14 07:13:17;;;;;;;14.03;7.90;;;;;;;;;;765833;182;919268;-74
2021/06/14 07:15:43;;;;;;;14.83;7.00;;;;;;;;;;757571;183;891164;-72
2021/06/14 07:18:09;;;;;;;11.90;7.70;;;;;;;;;;758963;183;918443;-75
2021/06/14 07:20:35;;;;;;;12.50;7.20;;;;;;;;;;758882;183;918998;-74
2021/06/14 07:23:01;;;;;;;13.63;8.00;;;;;;;;;;767726;183;809022;-75
2021/06/14 07:25:27;;;;;;;15.10;7.30;;;;;;;;;;756732;183;918732;-75
2021/06/14 07:27:53;;;;;;;13.00;7.90;;;;;;;;;;754409;183;919552;-72
2021/06/14 07:30:19;;;;;;;15.60;6.53;;;;;;;;;;760535;184;919255;-74
2021/06/14 07:32:45;;;;;;;12.60;7.50;;;;;;;;;;758396;183;919250;-74
2021/06/14 07:35:11;;;;;;;16.90;6.80;;;;;;;;;;755578;184;1045553;-75
2021/06/14 07:37:36;;;;;;;12.17;8.30;;;;;;;;;;762523;183;919262;-75
2021/06/14 07:40:02;;;;;;;11.40;7.40;;;;;;;;;;760048;182;917246;-75
2021/06/14 07:42:28;;;;;;;12.80;8.27;;;;;;;;;;761047;182;918893;-74
2021/06/14 07:44:55;;;;;;;18.35;7.65;;;;;;;;;;764315;182;919660;-73
2021/06/14 07:47:21;;;;;;;11.10;6.37;;;;;;;;;;762966;183;894541;-76
2021/06/14 07:49:46;;;;;;;13.47;7.83;;;;;;;;;;761753;182;919526;-74
2021/06/14 07:52:12;;;;;;;15.10;7.70;;;;;;;;;;759768;182;919409;-74
2021/06/14 07:54:38;;;;;;;13.37;6.83;;;;;;;;;;762628;184;681492;-74
2021/06/14 07:57:04;;;;;;;14.63;5.67;;;;;;;;;;763001;183;917708;-74
2021/06/14 07:59:30;;;;;;;15.30;6.53;;;;;;;;;;756797;184;941891;-74
2021/06/14 08:01:56;;;;;;;12.90;7.47;;;;;;;;;;751506;186;915908;-75
2021/06/14 08:04:22;;;;;;;9.23;6.70;;;;;;;;;;758620;183;919188;-77
2021/06/14 08:06:48;;;;;;;13.88;6.62;;;;;;;;;;760457;181;918746;-76
2021/06/14 08:09:16;;;;;;;16.30;7.27;;;;;;;;;;767068;182;918044;-75
2021/06/14 08:11:43;;;;;;;14.00;7.20;;;;;;;;;;759749;182;919250;-76
2021/06/14 08:14:06;;;;;;;14.53;7.00;;;;;;;;;;758549;183;917883;-76
2021/06/14 08:16:31;;;;;;;14.30;7.33;;;;;;;;;;762098;182;919202;-73
2021/06/14 08:21:42;;;;;;;9.57;6.13;;;;;;;;;;762863;182;919088;-77
2021/06/14 08:26:28;;;;;;;14.80;6.20;;;;;;;;;;763325;183;918170;-75
2021/06/14 08:28:54;;;;;;;12.57;5.80;;;;;;;;;;761783;183;815771;-72
2021/06/14 08:31:19;;;;;;;12.13;7.60;;;;;;;;;;758460;182;1840551;-75
2021/06/14 08:33:45;;;;;;;13.43;6.27;;;;;;;;;;759681;183;918221;-77
2021/06/14 08:36:11;;;;;;;9.87;5.40;;;;;;;;;;769611;183;803298;-75
2021/06/14 08:38:37;;;;;;;10.63;6.50;;;;;;;;;;761366;182;919099;-76
2021/06/14 08:41:03;;;;;;;12.20;6.53;;;;;;;;;;760942;182;890097;-77
2021/06/14 08:43:28;;;;;;;12.97;6.37;;;;;;;;;;766236;184;920024;-79
2021/06/14 08:45:54;;;;;;;11.77;6.03;;;;;;;;;;763227;182;816378;-77
2021/06/14 08:48:20;;;;;;;10.63;6.05;;;;;;;;;;762542;182;918680;-77
2021/06/14 08:50:46;;;;;;;13.37;6.80;;;;;;;;;;757273;184;918596;-77
2021/06/14 08:53:12;;;;;;;11.60;6.07;;;;;;;;;;758477;184;815741;-80
2021/06/14 08:55:38;;;;;;;10.40;4.80;;;;;;;;;;762844;181;903934;-76
2021/06/14 08:58:03;;;;;;;9.90;4.47;;;;;;;;;;760307;183;919589;-79
2021/06/14 09:00:29;;;;;;;9.83;6.50;;;;;;;;;;761780;184;917871;-81
2021/06/14 09:02:55;;;;;;;9.47;4.80;;;;;;;;;;760302;183;918795;-79
2021/06/14 09:05:21;;;;;;;8.47;4.50;;;;;;;;;;757165;183;918891;-78
2021/06/14 09:07:47;;;;;;;12.20;5.63;;;;;;;;;;767818;182;715043;-74
2021/06/14 09:10:19;;;;;;;12.57;5.47;;;;;;;;;;761363;182;918825;-76
2021/06/14 09:12:44;;;;;;;12.48;5.20;;;;;;;;;;763146;182;919287;-75
2021/06/14 09:15:11;;;;;;;7.60;4.57;;;;;;;;;;761467;182;918541;-75
2021/06/14 09:17:37;;;;;;;11.83;5.80;;;;;;;;;;765154;182;918388;-77
2021/06/14 09:20:03;;;;;;;8.67;4.47;;;;;;;;;;764901;182;917183;-76
2021/06/14 09:22:29;;;;;;;14.63;6.30;;;;;;;;;;762568;183;918044;-79
2021/06/14 09:24:55;;;;;;;8.90;4.47;;;;;;;;;;769071;183;816351;-78
2021/06/14 09:27:35;;;;;;;7.20;4.80;;;;;;;;;;757743;182;918097;-78
2021/06/14 09:30:06;;;;;;;9.65;4.62;;;;;;;;;;762456;182;918373;-75
2021/06/14 09:32:35;;;;;;;7.60;4.87;;;;;;;;;;756940;183;918066;-78
2021/06/14 09:34:58;;;;;;;7.97;4.80;;;;;;;;;;761751;183;920392;-78
2021/06/14 09:37:24;;;;;;;8.80;5.57;;;;;;;;;;766926;183;816033;-76
2021/06/14 09:39:49;;;;;;;7.73;4.23;;;;;;;;;;757693;182;966665;-78
2021/06/14 09:42:18;;;;;;;15.17;5.10;;;;;;;;;;758478;182;916354;-79
2021/06/14 09:44:44;;;;;;;9.07;5.27;;;;;;;;;;766268;182;917556;-77
2021/06/14 09:47:10;;;;;;;10.03;4.67;;;;;;;;;;761066;182;820095;-76
2021/06/14 09:49:36;;;;;;;9.63;5.20;;;;;;;;;;762727;182;944865;-77
2021/06/14 09:52:02;;;;;;;10.53;5.40;;;;;;;;;;767786;182;862116;-77
2021/06/14 09:54:28;;;;;;;12.00;5.60;;;;;;;;;;757491;184;918742;-79
2021/06/14 09:56:55;;;;;;;9.35;4.60;;;;;;;;;;758938;183;918809;-76
2021/06/14 09:59:25;;;;;;;10.33;6.30;;;;;;;;;;760950;182;916588;-76
2021/06/14 10:01:50;;;;;;;7.90;4.80;;;;;;;;;;767616;182;817470;-76
2021/06/14 10:04:19;;;;;;;9.33;5.50;;;;;;;;;;760674;182;1002801;-78
2021/06/14 10:06:42;;;;;;;12.80;6.17;;;;;;;;;;763099;183;1018980;-76
2021/06/14 10:09:09;;;;;;;19.03;6.10;;;;;;;;;;768051;183;813166;-76
2021/06/14 10:11:35;;;;;;;9.93;4.87;;;;;;;;;;757899;182;919173;-76
2021/06/14 10:14:04;;;;;;;10.30;4.73;;;;;;;;;;760797;182;818080;-77
2021/06/14 10:16:31;;;;;;;9.97;5.30;;;;;;;;;;759761;182;1021089;-73
2021/06/14 10:18:56;;;;;;;10.70;5.67;;;;;;;;;;767537;182;915405;-76
2021/06/14 10:21:22;;;;;;;10.17;5.57;;;;;;;;;;752621;185;921326;-78
2021/06/14 10:23:51;;;;;;;9.53;4.23;;;;;;;;;;756252;184;925847;-77
2021/06/14 10:26:14;;;;;;;12.03;6.13;;;;;;;;;;753256;186;909842;-77
2021/06/14 10:28:39;;;;;;;8.27;4.63;;;;;;;;;;758449;183;921401;-75
2021/06/14 10:31:06;;;;;;;14.97;5.40;;;;;;;;;;762045;182;1021008;-76
2021/06/14 10:33:31;;;;;;;11.23;5.03;;;;;;;;;;767632;182;918345;-77
2021/06/14 10:35:57;;;;;;;10.03;5.90;;;;;;;;;;759248;182;929023;-77
2021/06/14 10:38:23;;;;;;;9.10;5.13;;;;;;;;;;761800;182;919826;-75
2021/06/14 10:40:49;;;;;;;13.07;7.55;;;;;;;;;;758935;183;926928;-78
2021/06/14 10:43:14;;;;;;;10.27;4.83;;;;;;;;;;769306;179;916548;-78
2021/06/14 10:45:40;;;;;;;9.53;4.90;;;;;;;;;;761182;183;938851;-79
2021/06/14 10:48:10;;;;;;;9.10;5.10;;;;;;;;;;761400;182;919089;-75
2021/06/14 10:50:32;;;;;;;10.27;5.93;;;;;;;;;;766649;182;815952;-78
2021/06/14 10:52:58;;;;;;;17.73;7.03;;;;;;;;;;762456;182;914128;-77
2021/06/14 10:55:25;;;;;;;12.70;5.60;;;;;;;;;;758652;183;913574;-77
2021/06/14 10:57:51;;;;;;;10.73;4.60;;;;;;;;;;766888;182;911719;-76
2021/06/14 11:00:19;;;;;;;9.90;6.00;;;;;;;;;;762788;182;911428;-79
2021/06/14 11:02:50;;;;;;;9.97;6.10;;;;;;;;;;764071;182;910263;-74
2021/06/14 11:05:16;;;;;;;17.33;6.20;;;;;;;;;;761455;182;813472;-77
2021/06/14 11:07:42;;;;;;;12.57;5.60;;;;;;;;;;761914;183;813360;-72
2021/06/14 11:10:08;;;;;;;11.87;6.47;;;;;;;;;;753559;184;919283;-77
2021/06/14 11:12:34;;;;;;;16.90;7.12;;;;;;;;;;753308;183;899376;-74
2021/06/14 11:15:05;;;;;;;11.57;5.83;;;;;;;;;;765645;183;900341;-77
2021/06/14 11:17:32;;;;;;;7.83;4.47;;;;;;;;;;764526;183;907781;-72
2021/06/14 11:20:08;;;;;;;11.40;5.23;;;;;;;;;;759380;182;918646;-72
2021/06/14 11:22:39;;;;;;;12.30;5.70;;;;;;;;;;761550;182;893900;-74
2021/06/14 11:25:11;;;;;;;8.50;4.90;;;;;;;;;;760323;182;918884;-74
2021/06/14 11:27:37;;;;;;;11.10;4.83;;;;;;;;;;766653;182;918301;-76
2021/06/14 11:30:03;;;;;;;15.43;4.80;;;;;;;;;;758216;183;874426;-77
2021/06/14 11:32:29;;;;;;;10.07;4.93;;;;;;;;;;762664;183;920195;-74
2021/06/14 11:34:55;;;;;;;8.80;4.93;;;;;;;;;;756684;183;917936;-74
2021/06/14 11:37:21;;;;;;;8.97;5.27;;;;;;;;;;766020;183;919367;-75
2021/06/14 11:39:47;;;;;;;7.50;4.40;;;;;;;;;;758362;182;917926;-73
2021/06/14 11:42:13;;;;;;;9.30;5.23;;;;;;;;;;760243;182;919545;-74
2021/06/14 11:44:38;;;;;;;13.47;4.80;;;;;;;;;;768428;183;918045;-72
2021/06/14 11:47:10;;;;;;;10.83;4.80;;;;;;;;;;760157;182;918890;-77
2021/06/14 11:49:36;;;;;;;8.70;4.93;;;;;;;;;;762375;182;919740;-73
2021/06/14 11:52:04;;;;;;;13.90;5.50;;;;;;;;;;763244;183;920732;-72
2021/06/14 11:54:28;;;;;;;8.90;6.03;;;;;;;;;;761023;183;871618;-74
2021/06/14 11:56:58;;;;;;;8.23;5.60;;;;;;;;;;762058;183;918901;-72
2021/06/14 11:59:21;;;;;;;9.07;5.17;;;;;;;;;;760793;183;922454;-77
2021/06/14 12:01:47;;;;;;;16.77;5.40;;;;;;;;;;764380;182;875181;-72
2021/06/14 12:04:13;;;;;;;12.53;5.27;;;;;;;;;;763703;182;910200;-75
2021/06/14 12:06:44;;;;;;;8.70;5.65;;;;;;;;;;764201;182;897612;-75
2021/06/14 12:09:10;;;;;;;8.27;5.30;;;;;;;;;;759411;184;910579;-74
2021/06/14 12:11:36;;;;;;;12.63;5.37;;;;;;;;;;760792;183;877308;-76
2021/06/14 12:14:08;;;;;;;8.00;5.20;;;;;;;;;;762133;183;911735;-76
2021/06/14 12:16:34;;;;;;;8.00;5.13;;;;;;;;;;759308;181;837541;-76
2021/06/14 12:19:00;;;;;;;9.77;5.70;;;;;;;;;;764990;182;919700;-76
2021/06/14 12:21:25;;;;;;;10.50;5.43;;;;;;;;;;761813;183;816293;-76
2021/06/14 12:23:51;;;;;;;7.50;4.83;;;;;;;;;;757901;182;918820;-72
2021/06/14 12:26:17;;;;;;;12.23;5.47;;;;;;;;;;765547;182;918874;-77
2021/06/14 12:28:43;;;;;;;7.33;5.20;;;;;;;;;;760398;182;919457;-73
2021/06/14 12:31:10;;;;;;;13.03;6.70;;;;;;;;;;757869;182;921000;-77
2021/06/14 12:33:35;;;;;;;11.70;5.20;;;;;;;;;;759955;182;917431;-74
2021/06/14 12:36:02;;;;;;;6.50;4.93;;;;;;;;;;764194;183;923647;-71
2021/06/14 12:38:29;;;;;;;8.50;4.13;;;;;;;;;;758210;183;919297;-71
2021/06/14 12:40:53;;;;;;;8.57;4.77;;;;;;;;;;754587;182;2003039;-73
2021/06/14 12:43:19;;;;;;;7.80;4.60;;;;;;;;;;766764;183;920984;-81
2021/06/14 12:45:45;;;;;;;13.37;6.27;;;;;;;;;;754891;183;957563;-73
2021/06/14 12:48:11;;;;;;;10.67;4.80;;;;;;;;;;759520;184;919132;-76
2021/06/14 12:50:36;;;;;;;16.52;5.97;;;;;;;;;;764916;182;918994;-75
2021/06/14 12:53:02;;;;;;;10.73;5.87;;;;;;;;;;759392;182;918392;-74
2021/06/14 12:55:29;;;;;;;15.30;5.90;;;;;;;;;;760515;182;917523;-73
2021/06/14 12:57:55;;;;;;;11.80;5.53;;;;;;;;;;764358;182;918893;-76
2021/06/14 13:00:22;;;;;;;11.80;6.00;;;;;;;;;;763231;182;918719;-72
2021/06/14 13:02:51;;;;;;;11.17;4.83;;;;;;;;;;761605;182;918417;-78
2021/06/14 13:05:16;;;;;;;9.17;5.07;;;;;;;;;;760545;183;830425;-78
2021/06/14 13:07:48;;;;;;;8.50;4.60;;;;;;;;;;764004;183;918323;-78
2021/06/14 13:10:14;;;;;;;12.87;5.37;;;;;;;;;;759771;182;915730;-72
2021/06/14 13:12:40;;;;;;;10.30;4.90;;;;;;;;;;762126;182;864595;-74
2021/06/14 13:15:05;;;;;;;9.70;4.77;;;;;;;;;;761703;182;918342;-76
2021/06/14 13:17:31;;;;;;;9.83;5.20;;;;;;;;;;768730;182;789040;-76
2021/06/14 13:19:57;;;;;;;9.63;5.03;;;;;;;;;;759050;183;815049;-75
2021/06/14 13:22:23;;;;;;;12.33;5.20;;;;;;;;;;756671;184;712348;-73
2021/06/14 13:24:49;;;;;;;15.67;6.13;;;;;;;;;;751550;186;912249;-78
2021/06/14 13:27:15;;;;;;;7.63;5.00;;;;;;;;;;760201;183;918933;-73
2021/06/14 13:29:41;;;;;;;8.03;4.60;;;;;;;;;;757603;182;918628;-74
2021/06/14 13:32:10;;;;;;;6.90;5.60;;;;;;;;;;762694;182;914328;-74
2021/06/14 13:34:35;;;;;;;12.63;5.73;;;;;;;;;;763902;183;916597;-73
2021/06/14 13:36:59;;;;;;;8.87;5.07;;;;;;;;;;755502;183;919581;-73
2021/06/14 13:39:27;;;;;;;9.17;5.80;;;;;;;;;;760873;182;923089;-72
2021/06/14 13:41:53;;;;;;;11.57;6.37;;;;;;;;;;762140;184;883913;-73
2021/06/14 13:44:19;;;;;;;10.40;4.75;;;;;;;;;;758970;182;914941;-74
2021/06/14 13:46:45;;;;;;;10.17;5.60;;;;;;;;;;761386;182;914758;-76
2021/06/14 13:49:11;;;;;;;8.50;5.40;;;;;;;;;;766093;183;817292;-76
2021/06/14 13:51:37;;;;;;;15.67;5.77;;;;;;;;;;759280;183;919235;-73
2021/06/14 13:54:04;;;;;;;7.97;4.57;;;;;;;;;;759743;182;919785;-71
2021/06/14 13:56:29;;;;;;;10.53;5.67;;;;;;;;;;767029;182;923665;-72
2021/06/14 13:58:55;;;;;;;7.70;5.00;;;;;;;;;;763327;182;919099;-70
2021/06/14 14:01:24;;;;;;;11.93;6.10;;;;;;;;;;762001;182;919452;-77
2021/06/14 14:03:55;;;;;;;5.97;4.30;;;;;;;;;;763969;182;928688;-74
2021/06/14 14:06:20;;;;;;;23.10;6.57;;;;;;;;;;766375;182;919607;-75
2021/06/14 14:08:46;;;;;;;7.73;4.60;;;;;;;;;;761680;182;919254;-75
2021/06/14 14:11:12;;;;;;;7.20;4.57;;;;;;;;;;761771;182;919062;-77
2021/06/14 14:13:38;;;;;;;9.20;5.20;;;;;;;;;;769609;182;875923;-77
2021/06/14 14:16:04;;;;;;;10.77;5.20;;;;;;;;;;760660;182;919205;-76
2021/06/14 14:18:30;;;;;;;12.63;4.43;;;;;;;;;;759409;182;919008;-75